createdAt,value
2023-05-06T00:02:40.967Z,5.55
2023-05-06T00:05:43.488Z,7.10
2023-05-06T00:08:46.062Z,3.75
2023-05-06T00:11:47.689Z,3.35
2023-05-06T00:14:49.403Z,4.95
2023-05-06T00:17:51.192Z,4.47
2023-05-06T00:20:52.896Z,5.93
2023-05-06T00:23:54.437Z,4.45
2023-05-06T00:26:56.785Z,6.78
2023-05-06T00:29:58.428Z,5.85
2023-05-06T00:33:00.087Z,7.18
2023-05-06T00:36:01.766Z,5.50
2023-05-06T00:39:03.869Z,3.15
2023-05-06T00:42:06.732Z,3.15
2023-05-06T00:45:08.965Z,3.45
2023-05-06T00:48:10.828Z,5.15
2023-05-06T00:51:13.488Z,3.80
2023-05-06T00:54:15.300Z,3.75
2023-05-06T00:57:16.974Z,5.25
2023-05-06T01:00:20.264Z,8.07
2023-05-06T01:03:22.414Z,4.95
2023-05-06T01:06:35.791Z,5.32
2023-05-06T01:09:40.071Z,5.55
2023-05-06T01:12:51.770Z,6.60
2023-05-06T01:15:55.901Z,5.18
2023-05-06T01:19:00.344Z,4.72
2023-05-06T01:22:05.850Z,2.95
2023-05-06T01:25:07.892Z,4.75
2023-05-06T01:28:11.674Z,7.20
2023-05-06T01:31:20.675Z,6.30
2023-05-06T01:34:34.394Z,6.00
2023-05-06T01:37:47.963Z,5.63
2023-05-06T01:40:54.315Z,5.07
2023-05-06T01:43:59.254Z,7.50
2023-05-06T01:47:01.903Z,4.07
2023-05-06T01:50:04.608Z,5.18
2023-05-06T01:53:06.198Z,5.32
2023-05-06T01:56:07.881Z,4.40
2023-05-06T01:59:09.826Z,8.55
2023-05-06T02:02:11.521Z,4.90
2023-05-06T02:05:13.069Z,4.38
2023-05-06T02:08:14.661Z,6.88
2023-05-06T02:11:16.465Z,4.53
2023-05-06T02:14:18.035Z,5.35
2023-05-06T02:17:19.630Z,2.75
2023-05-06T02:20:21.300Z,6.95
2023-05-06T02:23:23.025Z,9.35
2023-05-06T02:26:24.605Z,4.07
2023-05-06T02:29:26.202Z,4.50
2023-05-06T02:32:27.860Z,2.85
2023-05-06T02:35:29.457Z,3.95
2023-05-06T02:38:31.295Z,1.45
2023-05-06T02:41:32.892Z,0.30
2023-05-06T02:44:34.458Z,0.85
2023-05-06T02:47:36.447Z,1.55
2023-05-06T02:50:38.043Z,0.03
2023-05-06T02:53:39.619Z,0.45
2023-05-06T02:56:43.233Z,0.63
2023-05-06T02:59:44.878Z,1.10
2023-05-06T03:02:46.481Z,3.08
2023-05-06T03:05:48.070Z,1.27
2023-05-06T03:08:49.644Z,1.35
2023-05-06T03:11:51.191Z,0.35
2023-05-06T03:14:52.758Z,2.10
2023-05-06T03:17:54.376Z,1.05
2023-05-06T03:20:56.006Z,0.40
2023-05-06T03:23:57.592Z,0.13
2023-05-06T03:26:59.153Z,0.30
2023-05-06T03:30:00.852Z,0.25
2023-05-06T03:33:02.573Z,0.52
2023-05-06T03:36:04.936Z,0.50
2023-05-06T03:39:06.541Z,2.15
2023-05-06T03:42:09.769Z,0.93
2023-05-06T03:45:11.900Z,0.75
2023-05-06T03:48:13.960Z,0.00
2023-05-06T03:51:15.886Z,3.92
2023-05-06T03:54:17.492Z,0.15
2023-05-06T03:57:19.075Z,0.43
2023-05-06T04:00:20.930Z,0.57
2023-05-06T04:03:22.602Z,0.03
2023-05-06T04:06:24.293Z,0.20
2023-05-06T04:09:25.856Z,0.55
2023-05-06T04:12:27.579Z,0.80
2023-05-06T04:15:32.007Z,0.00
2023-05-06T04:18:34.337Z,0.00
2023-05-06T04:21:36.021Z,2.30
2023-05-06T04:24:37.674Z,2.10
2023-05-06T04:27:39.287Z,0.63
2023-05-06T04:30:41.210Z,0.75
2023-05-06T04:33:43.052Z,0.43
2023-05-06T04:36:44.665Z,2.90
2023-05-06T04:39:47.054Z,0.10
2023-05-06T04:42:48.636Z,0.70
2023-05-06T04:45:50.360Z,1.05
2023-05-06T04:48:51.990Z,0.10
2023-05-06T04:51:53.550Z,0.30
2023-05-06T04:54:55.130Z,0.40
2023-05-06T04:57:56.672Z,1.02
2023-05-06T05:01:04.056Z,0.60
2023-05-06T05:04:05.627Z,0.25
2023-05-06T05:07:07.629Z,1.10
2023-05-06T05:10:10.484Z,1.13
2023-05-06T05:13:12.164Z,0.63
2023-05-06T05:16:13.890Z,0.60
2023-05-06T05:19:15.455Z,0.98
2023-05-06T05:22:17.064Z,0.10
2023-05-06T05:25:18.735Z,3.25
2023-05-06T05:28:20.284Z,0.45
2023-05-06T05:31:21.946Z,2.50
2023-05-06T05:34:23.586Z,0.50
2023-05-06T05:37:25.237Z,0.50
2023-05-06T05:40:26.918Z,1.20
2023-05-06T05:43:28.495Z,1.50
2023-05-06T05:46:30.362Z,0.20
2023-05-06T05:49:32.191Z,0.22
2023-05-06T05:52:33.906Z,0.28
2023-05-06T05:55:35.462Z,0.15
2023-05-06T05:58:37.000Z,0.38
2023-05-06T06:01:38.603Z,0.65
2023-05-06T06:04:40.241Z,2.30
2023-05-06T06:07:42.005Z,0.40
2023-05-06T06:10:43.570Z,0.38
2023-05-06T06:13:45.136Z,0.43
2023-05-06T06:16:46.816Z,0.52
2023-05-06T06:19:48.572Z,1.00
2023-05-06T06:22:50.146Z,0.52
2023-05-06T06:25:51.723Z,0.45
2023-05-06T06:28:53.296Z,0.70
2023-05-06T06:31:58.319Z,0.52
2023-05-06T06:34:59.955Z,0.65
2023-05-06T06:38:01.643Z,4.95
2023-05-06T06:41:03.761Z,0.10
2023-05-06T06:44:06.086Z,0.22
2023-05-06T06:47:07.690Z,1.75
2023-05-06T06:50:09.894Z,0.55
2023-05-06T06:53:11.566Z,1.05
2023-05-06T06:56:13.211Z,2.25
2023-05-06T06:59:14.912Z,0.50
2023-05-06T07:02:16.489Z,0.17
2023-05-06T07:05:18.580Z,0.20
2023-05-06T07:08:21.605Z,0.40
2023-05-06T07:11:23.151Z,0.10
2023-05-06T07:14:25.853Z,1.55
2023-05-06T07:17:27.387Z,1.02
2023-05-06T07:20:28.961Z,0.63
2023-05-06T07:23:32.159Z,0.22
2023-05-06T07:26:37.784Z,1.55
2023-05-06T07:29:39.399Z,1.38
2023-05-06T07:32:41.436Z,0.47
2023-05-06T07:35:43.087Z,2.15
2023-05-06T07:38:45.213Z,0.32
2023-05-06T07:41:46.787Z,0.25
2023-05-06T07:44:48.332Z,0.55
2023-05-06T07:47:50.181Z,0.55
2023-05-06T07:50:51.770Z,0.57
2023-05-06T07:53:53.351Z,4.97
2023-05-06T07:56:54.965Z,0.20
2023-05-06T07:59:58.445Z,0.70
2023-05-06T08:03:00.267Z,1.00
2023-05-06T08:06:02.137Z,1.80
2023-05-06T08:09:03.866Z,1.42
2023-05-06T08:12:05.801Z,4.10
2023-05-06T08:15:08.219Z,1.80
2023-05-06T08:18:20.643Z,0.63
2023-05-06T08:21:23.702Z,1.40
2023-05-06T08:24:25.324Z,0.57
2023-05-06T08:27:26.924Z,1.55
2023-05-06T08:30:28.742Z,0.55
2023-05-06T08:33:30.921Z,0.73
2023-05-06T08:36:32.497Z,2.35
2023-05-06T08:39:34.084Z,1.63
2023-05-06T08:42:36.980Z,1.08
2023-05-06T08:45:38.614Z,1.60
2023-05-06T08:48:41.377Z,0.40
2023-05-06T08:51:44.396Z,0.90
2023-05-06T08:54:48.219Z,0.85
2023-05-06T08:57:53.292Z,2.03
2023-05-06T09:00:54.908Z,1.83
2023-05-06T09:03:58.212Z,1.70
2023-05-06T09:06:59.869Z,1.17
2023-05-06T09:10:12.418Z,1.40
2023-05-06T09:13:16.122Z,1.65
2023-05-06T09:16:30.708Z,1.00
2023-05-06T09:19:32.442Z,1.25
2023-05-06T09:22:34.027Z,1.60
2023-05-06T09:25:36.970Z,0.98
2023-05-06T09:28:38.603Z,2.92
2023-05-06T09:31:42.718Z,2.15
2023-05-06T09:34:46.445Z,1.80
2023-05-06T09:37:48.061Z,2.05
2023-05-06T09:40:49.751Z,1.13
2023-05-06T09:43:56.106Z,0.93
2023-05-06T09:46:58.088Z,1.10
2023-05-06T09:50:00.846Z,1.50
2023-05-06T09:53:05.045Z,0.93
2023-05-06T09:56:07.746Z,1.90
2023-05-06T09:59:11.146Z,0.45
2023-05-06T10:02:15.845Z,5.10
2023-05-06T10:05:18.482Z,0.55
2023-05-06T10:08:23.766Z,0.88
2023-05-06T10:11:26.644Z,2.40
2023-05-06T10:14:28.608Z,0.70
2023-05-06T10:17:32.257Z,0.38
2023-05-06T10:20:38.809Z,0.40
2023-05-06T10:23:49.245Z,0.95
2023-05-06T10:26:54.869Z,0.82
2023-05-06T10:29:59.973Z,0.68
2023-05-06T10:33:07.503Z,0.82
2023-05-06T10:36:27.783Z,0.95
2023-05-06T10:39:29.618Z,0.65
2023-05-06T10:42:35.352Z,0.68
2023-05-06T10:46:13.097Z,0.80
2023-05-06T10:49:14.962Z,0.43
2023-05-06T10:52:17.425Z,0.40
2023-05-06T10:55:29.183Z,0.40
2023-05-06T10:58:36.374Z,0.47
2023-05-06T11:01:40.471Z,0.45
2023-05-06T11:04:42.262Z,0.65
2023-05-06T11:07:43.856Z,0.68
2023-05-06T11:10:45.552Z,0.60
2023-05-06T11:13:52.364Z,0.35
2023-05-06T11:16:54.861Z,0.85
2023-05-06T11:20:18.091Z,1.15
2023-05-06T11:23:19.652Z,0.40
2023-05-06T11:26:21.391Z,0.10
2023-05-06T11:29:23.703Z,2.47
2023-05-06T11:32:29.019Z,0.08
2023-05-06T11:35:37.464Z,0.20
2023-05-06T11:38:52.908Z,0.70
2023-05-06T11:41:54.835Z,0.65
2023-05-06T11:45:02.345Z,0.82
2023-05-06T11:48:04.023Z,0.20
2023-05-06T11:51:05.638Z,0.50
2023-05-06T11:54:10.952Z,0.10
2023-05-06T11:57:13.718Z,0.40
2023-05-06T12:00:15.659Z,0.10
2023-05-06T12:03:18.096Z,0.20
2023-05-06T12:06:31.489Z,0.28
2023-05-06T12:09:34.509Z,0.30
2023-05-06T12:12:36.342Z,0.43
2023-05-06T12:15:38.409Z,0.80
2023-05-06T12:18:40.116Z,0.57
2023-05-06T12:21:41.758Z,0.30
2023-05-06T12:24:43.534Z,0.20
2023-05-06T12:27:45.608Z,0.45
2023-05-06T12:30:47.414Z,1.02
2023-05-06T12:33:50.370Z,0.22
2023-05-06T12:36:52.135Z,0.30
2023-05-06T12:39:57.819Z,0.63
2023-05-06T12:43:00.565Z,0.52
2023-05-06T12:46:09.032Z,0.40
2023-05-06T12:49:10.669Z,0.50
2023-05-06T12:52:12.369Z,0.13
2023-05-06T12:55:13.963Z,0.15
2023-05-06T12:58:16.449Z,0.20
2023-05-06T13:01:18.857Z,0.15
2023-05-06T13:04:23.807Z,0.10
2023-05-06T13:07:25.372Z,0.08
2023-05-06T13:10:26.935Z,0.20
2023-05-06T13:13:31.063Z,0.30
2023-05-06T13:16:32.773Z,0.65
2023-05-06T13:19:34.482Z,0.20
2023-05-06T13:22:50.742Z,0.13
2023-05-06T13:26:04.273Z,0.25
2023-05-06T13:29:07.241Z,1.38
2023-05-06T13:32:09.183Z,0.32
2023-05-06T13:35:11.080Z,0.20
2023-05-06T13:38:12.888Z,0.47
2023-05-06T13:41:14.690Z,0.20
2023-05-06T13:44:17.091Z,0.20
2023-05-06T13:47:18.665Z,0.20
2023-05-06T13:50:20.566Z,0.20
2023-05-06T13:53:22.483Z,0.30
2023-05-06T13:56:24.073Z,0.63
2023-05-06T13:59:25.996Z,0.45
2023-05-06T14:02:28.047Z,0.30
2023-05-06T14:05:29.645Z,1.35
2023-05-06T14:08:32.777Z,0.08
2023-05-06T14:11:34.393Z,0.68
2023-05-06T14:14:35.946Z,0.22
2023-05-06T14:17:38.480Z,1.17
2023-05-06T14:20:40.125Z,0.20
2023-05-06T14:23:41.837Z,0.00
2023-05-06T14:26:45.992Z,0.30
2023-05-06T14:29:47.713Z,0.13
2023-05-06T14:32:49.435Z,0.10
2023-05-06T14:35:52.805Z,2.15
2023-05-06T14:38:54.412Z,0.38
2023-05-06T14:41:56.047Z,1.30
2023-05-06T14:44:57.614Z,0.10
2023-05-06T14:47:59.279Z,0.10
2023-05-06T14:51:00.885Z,0.50
2023-05-06T14:54:02.557Z,0.30
2023-05-06T14:57:04.206Z,0.30
2023-05-06T15:00:09.979Z,0.75
2023-05-06T15:03:11.653Z,0.28
2023-05-06T15:06:13.233Z,0.40
2023-05-06T15:09:14.893Z,0.13
2023-05-06T15:12:16.526Z,2.20
2023-05-06T15:15:18.125Z,0.25
2023-05-06T15:18:19.680Z,0.10
2023-05-06T15:21:21.274Z,0.15
2023-05-06T15:24:23.360Z,0.50
2023-05-06T15:27:24.914Z,0.60
2023-05-06T15:30:26.479Z,0.32
2023-05-06T15:33:34.027Z,0.20
2023-05-06T15:36:35.565Z,0.05
2023-05-06T15:39:39.885Z,0.10
2023-05-06T15:42:41.539Z,0.35
2023-05-06T15:45:43.132Z,0.45
2023-05-06T15:48:45.712Z,0.20
2023-05-06T15:51:47.374Z,0.00
2023-05-06T15:54:49.932Z,2.65
2023-05-06T15:57:53.657Z,0.55
2023-05-06T16:00:55.233Z,0.10
2023-05-06T16:03:56.941Z,0.10
2023-05-06T16:06:58.749Z,0.10
2023-05-06T16:10:00.311Z,0.43
2023-05-06T16:13:01.935Z,0.30
2023-05-06T16:16:03.730Z,0.08
2023-05-06T16:19:05.382Z,0.85
2023-05-06T16:22:13.375Z,0.15
2023-05-06T16:25:14.959Z,0.10
2023-05-06T16:28:16.561Z,0.77
2023-05-06T16:31:18.210Z,0.50
2023-05-06T16:34:19.847Z,0.43
2023-05-06T16:37:21.569Z,0.45
2023-05-06T16:40:24.415Z,0.15
2023-05-06T16:43:26.010Z,1.75
2023-05-06T16:46:28.968Z,0.05
2023-05-06T16:49:30.618Z,5.53
2023-05-06T16:52:32.180Z,0.57
2023-05-06T16:55:34.161Z,1.75
2023-05-06T16:58:35.751Z,1.13
2023-05-06T17:01:37.326Z,0.55
2023-05-06T17:04:38.890Z,0.60
2023-05-06T17:07:40.507Z,0.25
2023-05-06T17:10:43.448Z,0.73
2023-05-06T17:13:45.088Z,0.32
2023-05-06T17:16:47.154Z,0.32
2023-05-06T17:19:48.842Z,0.10
2023-05-06T17:22:50.454Z,0.20
2023-05-06T17:25:52.041Z,0.50
2023-05-06T17:28:53.610Z,0.10
2023-05-06T17:31:55.195Z,2.28
2023-05-06T17:34:56.886Z,0.32
2023-05-06T17:37:58.457Z,0.30
2023-05-06T17:41:00.031Z,0.63
2023-05-06T17:44:01.786Z,1.85
2023-05-06T17:47:03.517Z,0.65
2023-05-06T17:50:05.649Z,0.43
2023-05-06T17:53:07.279Z,0.32
2023-05-06T17:56:08.838Z,0.43
2023-05-06T17:59:11.376Z,0.80
2023-05-06T18:02:15.858Z,0.73
2023-05-06T18:05:17.709Z,0.28
2023-05-06T18:08:19.331Z,1.45
2023-05-06T18:11:21.262Z,0.47
2023-05-06T18:14:22.864Z,0.70
2023-05-06T18:17:24.457Z,3.40
2023-05-06T18:20:26.812Z,0.90
2023-05-06T18:23:29.631Z,0.93
2023-05-06T18:26:43.974Z,0.47
2023-05-06T18:29:46.679Z,0.20
2023-05-06T18:32:50.693Z,0.45
2023-05-06T18:35:53.017Z,0.52
2023-05-06T18:38:54.621Z,0.17
2023-05-06T18:41:56.193Z,0.03
2023-05-06T18:44:58.096Z,0.30
2023-05-06T18:47:59.767Z,1.63
2023-05-06T18:51:12.744Z,0.47
2023-05-06T18:54:15.661Z,0.20
2023-05-06T18:57:19.572Z,2.38
2023-05-06T19:00:22.572Z,0.15
2023-05-06T19:03:24.172Z,0.13
2023-05-06T19:06:25.764Z,0.47
2023-05-06T19:09:27.421Z,0.85
2023-05-06T19:12:30.592Z,0.35
2023-05-06T19:15:32.186Z,0.38
2023-05-06T19:18:33.737Z,0.55
2023-05-06T19:21:35.872Z,0.30
2023-05-06T19:24:37.434Z,0.47
2023-05-06T19:27:39.011Z,0.20
2023-05-06T19:30:40.692Z,0.63
2023-05-06T19:33:42.626Z,1.90
2023-05-06T19:36:44.195Z,0.15
2023-05-06T19:39:46.590Z,0.22
2023-05-06T19:42:48.171Z,0.88
2023-05-06T19:45:49.730Z,0.30
2023-05-06T19:48:51.299Z,1.13
2023-05-06T19:51:52.832Z,0.32
2023-05-06T19:54:54.481Z,0.35
2023-05-06T19:57:56.977Z,0.63
2023-05-06T20:00:59.819Z,0.98
2023-05-06T20:04:01.499Z,0.38
2023-05-06T20:07:03.893Z,0.40
2023-05-06T20:10:06.075Z,0.10
2023-05-06T20:13:07.730Z,0.30
2023-05-06T20:16:09.881Z,0.55
2023-05-06T20:19:11.819Z,0.30
2023-05-06T20:22:13.536Z,0.75
2023-05-06T20:25:17.543Z,1.25
2023-05-06T20:28:19.194Z,0.82
2023-05-06T20:31:20.984Z,0.57
2023-05-06T20:34:22.588Z,0.47
2023-05-06T20:37:24.561Z,3.03
2023-05-06T20:40:26.261Z,0.77
2023-05-06T20:43:27.843Z,2.65
2023-05-06T20:46:29.452Z,0.13
2023-05-06T20:49:31.004Z,2.13
2023-05-06T20:52:33.971Z,0.88
2023-05-06T20:55:35.913Z,0.35
2023-05-06T20:58:37.569Z,2.22
2023-05-06T21:01:39.281Z,0.55
2023-05-06T21:04:41.778Z,0.60
2023-05-06T21:07:43.374Z,0.50
2023-05-06T21:10:45.086Z,0.80
2023-05-06T21:13:48.212Z,0.93
2023-05-06T21:16:52.127Z,0.35
2023-05-06T21:19:53.789Z,0.60
2023-05-06T21:22:55.535Z,0.70
2023-05-06T21:25:59.355Z,0.95
2023-05-06T21:29:00.925Z,0.82
2023-05-06T21:32:02.508Z,1.55
2023-05-06T21:35:04.470Z,0.43
2023-05-06T21:38:06.141Z,0.15
2023-05-06T21:41:08.915Z,1.50
2023-05-06T21:44:10.520Z,0.65
2023-05-06T21:47:12.060Z,1.17
2023-05-06T21:50:13.834Z,0.50
2023-05-06T21:53:15.554Z,1.00
2023-05-06T21:56:21.202Z,1.10
2023-05-06T21:59:22.889Z,2.13
2023-05-06T22:02:24.601Z,1.00
2023-05-06T22:05:26.294Z,0.22
2023-05-06T22:08:29.888Z,1.50
2023-05-06T22:11:31.478Z,0.43
2023-05-06T22:14:40.483Z,0.90
2023-05-06T22:17:42.923Z,2.10
2023-05-06T22:20:44.805Z,1.48
2023-05-06T22:23:46.478Z,4.28
2023-05-06T22:26:48.067Z,1.08
2023-05-06T22:29:49.731Z,1.73
2023-05-06T22:32:51.350Z,0.35
2023-05-06T22:35:53.200Z,0.70
2023-05-06T22:38:55.331Z,0.17
2023-05-06T22:41:57.240Z,1.08
2023-05-06T22:44:58.828Z,0.32
2023-05-06T22:48:00.604Z,0.22
2023-05-06T22:51:03.331Z,0.22
2023-05-06T22:54:05.024Z,0.30
2023-05-06T22:57:06.720Z,0.43
2023-05-06T23:00:10.559Z,0.50
2023-05-06T23:03:12.448Z,0.50
2023-05-06T23:06:14.006Z,0.05
2023-05-06T23:09:15.602Z,0.88
2023-05-06T23:12:17.158Z,1.83
2023-05-06T23:15:18.772Z,1.58
2023-05-06T23:18:20.904Z,0.35
2023-05-06T23:21:22.807Z,1.65
2023-05-06T23:24:24.387Z,1.25
2023-05-06T23:27:26.099Z,0.32
2023-05-06T23:30:27.812Z,0.32
2023-05-06T23:33:29.410Z,0.73
2023-05-06T23:36:31.144Z,0.40
2023-05-06T23:39:32.740Z,1.20
2023-05-06T23:42:34.299Z,0.70
2023-05-06T23:45:35.934Z,0.60
2023-05-06T23:48:37.880Z,1.05
2023-05-06T23:51:39.471Z,0.57
2023-05-06T23:54:41.050Z,0.35
2023-05-06T23:57:42.709Z,0.50
